Time;durP1;ratioP1;P1;durP2;ratioP2;P2;SDS_P1;SDS_P2;PMS_P1;PMS_P2;Temp;Humidity;BMP_temperature;BMP_pressure;BME280_temperature;BME280_humidity;BME280_pressure;Samples;Min_cycle;Max_cycle;Signal;HPM_P1;HPM_P2
2021/10/28 00:14:05;;;;;;;10.27;6.25;;;12.20;98.00;;;;;;5033816;28;20111;-88
2021/10/28 00:16:33;;;;;;;8.57;5.88;;;12.20;98.00;;;;;;4984011;28;20030;-88
2021/10/28 00:19:03;;;;;;;9.55;6.75;;;12.20;98.00;;;;;;5000801;28;20132;-88
2021/10/28 00:21:37;;;;;;;12.13;5.82;;;12.20;98.10;;;;;;5000758;28;20091;-88
2021/10/28 00:24:06;;;;;;;8.75;6.05;;;12.20;98.00;;;;;;5016429;28;20446;-88
2021/10/28 00:26:33;;;;;;;9.25;6.03;;;12.20;98.00;;;;;;5016408;28;20025;-88
2021/10/28 00:29:02;;;;;;;12.98;6.70;;;12.20;98.00;;;;;;5033980;28;20108;-89
2021/10/28 00:31:30;;;;;;;8.80;6.38;;;12.20;98.00;;;;;;5003022;28;20029;-88
2021/10/28 00:33:56;;;;;;;8.48;5.85;;;12.10;98.00;;;;;;5016256;28;20025;-88
2021/10/28 00:36:22;;;;;;;9.00;6.03;;;12.20;97.90;;;;;;5016259;28;20049;-88
2021/10/28 00:38:48;;;;;;;10.57;5.95;;;12.10;97.80;;;;;;5000047;28;20026;-88
2021/10/28 00:41:19;;;;;;;8.15;5.82;;;12.10;97.90;;;;;;5000006;28;20387;-89
2021/10/28 00:43:56;;;;;;;8.70;6.45;;;12.10;97.90;;;;;;5015597;28;20026;-88
2021/10/28 00:46:27;;;;;;;10.27;6.13;;;12.10;98.00;;;;;;5016374;28;20042;-88
2021/10/28 00:48:53;;;;;;;11.25;6.13;;;12.10;98.00;;;;;;5000668;28;20065;-88
2021/10/28 00:51:23;;;;;;;10.45;5.97;;;12.10;98.10;;;;;;5016458;28;20087;-88
2021/10/28 00:54:14;;;;;;;9.35;5.45;;;12.10;98.00;;;;;;4999756;28;20029;-88
2021/10/28 00:56:43;;;;;;;9.43;5.32;;;12.10;98.00;;;;;;5033716;28;20045;-88
2021/10/28 00:59:09;;;;;;;8.73;5.70;;;12.10;98.00;;;;;;5000245;28;20033;-88
2021/10/28 01:01:35;;;;;;;10.73;5.45;;;12.10;98.00;;;;;;5000395;28;20386;-88
2021/10/28 01:04:01;;;;;;;8.90;6.20;;;12.10;98.00;;;;;;4999781;28;20029;-89
2021/10/28 01:06:27;;;;;;;9.40;5.93;;;12.10;98.00;;;;;;5000155;28;20037;-88
2021/10/28 01:08:53;;;;;;;9.63;5.88;;;12.10;97.90;;;;;;5016158;28;20025;-88
2021/10/28 01:11:19;;;;;;;8.75;5.85;;;12.10;97.90;;;;;;4999722;28;20356;-89
2021/10/28 01:13:45;;;;;;;9.85;5.63;;;12.00;97.80;;;;;;5015747;28;20490;-88
2021/10/28 01:16:13;;;;;;;9.00;5.35;;;12.00;97.70;;;;;;5033591;28;20052;-89
2021/10/28 01:18:39;;;;;;;9.52;5.47;;;12.00;97.70;;;;;;4999716;28;20059;-88
2021/10/28 01:21:09;;;;;;;9.50;5.50;;;11.90;97.80;;;;;;5015978;28;20013;-88
2021/10/28 01:23:37;;;;;;;9.88;5.35;;;11.90;97.80;;;;;;4999581;28;20052;-89
2021/10/28 01:26:11;;;;;;;7.63;5.18;;;11.90;97.80;;;;;;5001944;28;20045;-89
2021/10/28 01:28:41;;;;;;;10.68;5.80;;;11.90;97.80;;;;;;5003502;28;20026;-88
2021/10/28 01:31:10;;;;;;;10.40;5.60;;;11.90;97.80;;;;;;5019512;28;20043;-89
2021/10/28 01:33:39;;;;;;;9.50;5.93;;;11.90;97.80;;;;;;5003262;28;20025;-89
2021/10/28 01:36:05;;;;;;;8.35;5.18;;;11.90;97.80;;;;;;5019440;28;20087;-88
2021/10/28 01:38:31;;;;;;;8.43;5.78;;;11.80;97.80;;;;;;5019682;28;20028;-88
2021/10/28 01:41:04;;;;;;;11.07;6.00;;;11.80;97.80;;;;;;5003453;28;20034;-88
2021/10/28 01:43:32;;;;;;;10.38;5.78;;;11.80;97.90;;;;;;5003255;28;20525;-88
2021/10/28 01:45:58;;;;;;;8.50;5.05;;;11.80;97.90;;;;;;5019596;28;20017;-88
2021/10/28 01:48:25;;;;;;;8.45;6.03;;;11.80;97.90;;;;;;5019287;28;20041;-88
2021/10/28 01:50:51;;;;;;;8.82;5.97;;;11.80;97.80;;;;;;5003436;28;20024;-89
2021/10/28 01:53:18;;;;;;;8.00;5.75;;;11.80;97.70;;;;;;5003245;28;20033;-88
2021/10/28 01:55:44;;;;;;;9.32;5.50;;;11.70;97.60;;;;;;5003096;28;20049;-88
2021/10/28 01:58:11;;;;;;;7.57;4.82;;;11.80;97.70;;;;;;4987069;28;20064;-88
2021/10/28 02:00:38;;;;;;;9.77;5.75;;;11.70;97.70;;;;;;5003013;28;20371;-88
2021/10/28 02:03:04;;;;;;;8.60;5.57;;;11.70;97.80;;;;;;5003365;28;20033;-89
2021/10/28 02:05:30;;;;;;;9.43;5.45;;;11.70;97.90;;;;;;5019080;28;20074;-88
2021/10/28 02:08:03;;;;;;;8.27;5.38;;;11.70;97.80;;;;;;5019203;28;20029;-88
2021/10/28 02:10:28;;;;;;;11.95;5.68;;;11.70;97.90;;;;;;5002792;28;20034;-88
2021/10/28 02:12:57;;;;;;;8.88;5.40;;;11.70;97.90;;;;;;5002779;28;20164;-88
2021/10/28 02:15:24;;;;;;;9.55;5.90;;;11.60;97.80;;;;;;5002871;28;20437;-87
2021/10/28 02:17:49;;;;;;;7.97;5.50;;;11.60;97.70;;;;;;5002391;28;20028;-88
2021/10/28 02:20:16;;;;;;;9.52;5.78;;;11.60;97.70;;;;;;5002527;28;20116;-88
2021/10/28 02:22:43;;;;;;;7.43;5.80;;;11.60;97.70;;;;;;5018853;28;20034;-88
2021/10/28 02:25:10;;;;;;;8.95;5.85;;;11.60;97.60;;;;;;5018678;28;20022;-88
2021/10/28 02:27:36;;;;;;;9.65;5.78;;;11.60;97.60;;;;;;5018507;28;20018;-89
2021/10/28 02:30:03;;;;;;;10.48;5.70;;;11.60;97.50;;;;;;5018554;28;20410;-87
2021/10/28 02:32:29;;;;;;;8.75;5.28;;;11.50;97.60;;;;;;5018726;28;20025;-87
2021/10/28 02:34:55;;;;;;;9.90;5.88;;;11.50;97.60;;;;;;5002468;28;20034;-87
2021/10/28 02:37:21;;;;;;;9.77;5.57;;;11.50;97.60;;;;;;5018104;28;20470;-87
2021/10/28 02:39:48;;;;;;;9.35;5.75;;;11.50;97.70;;;;;;5018783;28;20014;-87
2021/10/28 02:42:14;;;;;;;9.52;5.68;;;11.50;97.70;;;;;;4986189;28;20029;-87
2021/10/28 02:44:40;;;;;;;10.93;6.75;;;11.40;97.80;;;;;;4986251;28;20129;-88
2021/10/28 02:47:09;;;;;;;10.05;5.78;;;11.40;97.80;;;;;;4999070;28;20495;-88
2021/10/28 02:49:35;;;;;;;12.02;5.93;;;11.40;97.80;;;;;;5014368;28;20487;-88
2021/10/28 02:52:00;;;;;;;10.32;6.22;;;11.40;97.80;;;;;;5002153;28;20024;-88
2021/10/28 02:54:26;;;;;;;9.93;6.70;;;11.40;97.80;;;;;;5001927;28;20037;-87
2021/10/28 02:56:52;;;;;;;9.18;6.03;;;11.40;97.80;;;;;;5009582;28;20049;-94
2021/10/28 02:59:18;;;;;;;8.85;5.97;;;11.40;97.80;;;;;;5006043;28;20036;-88
2021/10/28 03:01:48;;;;;;;11.43;6.45;;;11.30;97.80;;;;;;5017922;28;20112;-88
2021/10/28 03:04:16;;;;;;;10.13;6.03;;;11.30;97.80;;;;;;5018050;28;20386;-88
2021/10/28 03:06:42;;;;;;;9.77;6.35;;;11.30;97.80;;;;;;5022411;28;20018;-92
2021/10/28 03:09:14;;;;;;;9.88;6.60;;;11.30;97.80;;;;;;5031391;28;20025;-94
2021/10/28 03:11:42;;;;;;;8.70;5.85;;;11.20;97.80;;;;;;5024661;28;20071;-94
2021/10/28 03:14:11;;;;;;;11.38;6.20;;;11.20;97.70;;;;;;5022403;28;20018;-94
2021/10/28 03:16:49;;;;;;;10.77;6.07;;;11.20;97.60;;;;;;5009126;28;20083;-88
2021/10/28 03:27:53;;;;;;;8.98;6.35;;;11.10;97.60;;;;;;5041887;28;20056;-94
2021/10/28 03:30:21;;;;;;;9.50;6.53;;;11.00;97.60;;;;;;4989375;28;20030;-94
2021/10/28 03:32:47;;;;;;;10.75;6.75;;;11.00;97.60;;;;;;4991136;28;20029;-95
2021/10/28 03:35:14;;;;;;;8.43;6.30;;;11.00;97.50;;;;;;5002025;28;20049;-87
2021/10/28 03:37:45;;;;;;;12.35;7.00;;;10.90;97.50;;;;;;5001497;28;20026;-87
2021/10/28 03:46:08;;;;;;;9.52;7.45;;;10.80;97.60;;;;;;5002157;28;20112;-87
2021/10/28 04:03:06;;;;;;;10.80;7.65;;;10.70;97.70;;;;;;5025995;28;20029;-93
2021/10/28 04:07:45;;;;;;;12.38;8.05;;;10.70;97.70;;;;;;5031234;28;20034;-90
2021/10/28 04:18:44;;;;;;;10.80;8.00;;;10.60;97.90;;;;;;5051734;28;20040;-92
2021/10/28 04:29:18;;;;;;;10.60;7.78;;;10.60;98.00;;;;;;4987295;28;20092;-87
2021/10/28 04:31:46;;;;;;;10.85;7.80;;;10.60;98.10;;;;;;4965156;28;20022;-87
2021/10/28 04:34:12;;;;;;;11.90;8.20;;;10.60;98.20;;;;;;4965618;28;20030;-87
2021/10/28 04:36:39;;;;;;;13.52;8.07;;;10.60;98.20;;;;;;4981775;28;20080;-87
2021/10/28 04:39:07;;;;;;;12.68;8.77;;;10.50;98.20;;;;;;4984873;28;20029;-88
2021/10/28 04:41:33;;;;;;;13.50;8.93;;;10.50;98.20;;;;;;5016560;28;20021;-88
2021/10/28 04:43:59;;;;;;;12.80;8.65;;;10.50;98.20;;;;;;4983974;28;20032;-87
2021/10/28 04:46:25;;;;;;;11.52;7.63;;;10.50;98.30;;;;;;5000183;28;20029;-87
2021/10/28 04:48:51;;;;;;;10.93;8.38;;;10.50;98.30;;;;;;4980497;28;20468;-87
2021/10/28 04:51:17;;;;;;;11.48;8.23;;;10.50;98.30;;;;;;4980479;28;20034;-87
2021/10/28 04:53:43;;;;;;;17.25;9.60;;;10.50;98.20;;;;;;4980615;28;20029;-87
2021/10/28 04:56:08;;;;;;;13.65;8.45;;;10.50;98.30;;;;;;4996742;28;20045;-86
2021/10/28 04:58:34;;;;;;;14.98;8.95;;;10.50;98.30;;;;;;4981117;28;20037;-87
2021/10/28 05:01:00;;;;;;;12.65;8.50;;;10.50;98.30;;;;;;4983042;28;20060;-87
2021/10/28 05:03:25;;;;;;;15.00;8.70;;;10.50;98.30;;;;;;4999316;28;20498;-87
2021/10/28 05:05:51;;;;;;;12.98;8.85;;;10.40;98.30;;;;;;4988995;28;20080;-87
2021/10/28 05:08:17;;;;;;;15.10;8.98;;;10.40;98.30;;;;;;5005666;28;20033;-92
2021/10/28 05:10:43;;;;;;;15.65;8.65;;;10.40;98.30;;;;;;5036601;28;20005;-93
2021/10/28 05:13:18;;;;;;;14.88;8.63;;;10.40;98.30;;;;;;5021927;28;20463;-92
2021/10/28 05:15:46;;;;;;;17.95;10.00;;;10.40;98.30;;;;;;5040148;28;20022;-92
2021/10/28 05:18:13;;;;;;;13.18;8.85;;;10.30;98.30;;;;;;5040251;28;20072;-92
2021/10/28 05:20:40;;;;;;;14.57;9.82;;;10.30;98.40;;;;;;5020287;28;20104;-88
2021/10/28 05:23:06;;;;;;;15.77;10.00;;;10.30;98.50;;;;;;5020048;28;20021;-88
2021/10/28 05:25:32;;;;;;;13.38;9.60;;;10.30;98.50;;;;;;5003787;28;20025;-87
2021/10/28 05:31:07;;;;;;;19.73;10.73;;;10.30;98.50;;;;;;5044207;28;20040;-94
2021/10/28 05:33:36;;;;;;;15.18;9.68;;;10.20;98.60;;;;;;4994375;28;20026;-91
2021/10/28 05:36:02;;;;;;;15.05;10.05;;;10.20;98.50;;;;;;5006723;28;20208;-87
2021/10/28 05:38:28;;;;;;;14.07;9.52;;;10.20;98.50;;;;;;5019658;28;20538;-87
2021/10/28 05:40:53;;;;;;;15.75;9.48;;;10.20;98.50;;;;;;5007296;28;20445;-94
2021/10/28 05:43:19;;;;;;;17.58;9.80;;;10.10;98.50;;;;;;5007872;28;20025;-95
2021/10/28 05:45:46;;;;;;;16.67;9.77;;;10.10;98.50;;;;;;5024968;28;20066;-94
2021/10/28 05:48:12;;;;;;;13.35;9.60;;;10.10;98.50;;;;;;4990116;28;20030;-91
2021/10/28 05:50:40;;;;;;;16.50;9.95;;;10.10;98.60;;;;;;5021463;28;20083;-92
2021/10/28 05:53:09;;;;;;;15.40;9.55;;;10.10;98.90;;;;;;4995493;28;20030;-92
2021/10/28 05:55:35;;;;;;;16.33;9.52;;;10.10;98.70;;;;;;5011131;28;20129;-92
2021/10/28 05:58:01;;;;;;;15.52;9.82;;;10.10;98.70;;;;;;5024796;28;20071;-92
2021/10/28 06:00:26;;;;;;;16.35;8.80;;;10.10;98.70;;;;;;5009368;28;20620;-93
2021/10/28 06:02:52;;;;;;;16.33;9.40;;;10.10;98.70;;;;;;5023652;28;20033;-92
2021/10/28 06:05:19;;;;;;;13.43;8.93;;;10.10;98.70;;;;;;5022277;28;20026;-91
2021/10/28 06:07:45;;;;;;;16.45;9.48;;;10.10;98.70;;;;;;5013186;28;20060;-93
2021/10/28 06:10:12;;;;;;;14.38;9.10;;;10.10;98.70;;;;;;5003711;28;20120;-92
2021/10/28 06:12:42;;;;;;;16.90;9.73;;;10.10;98.70;;;;;;5019799;28;20018;-92
2021/10/28 06:15:10;;;;;;;15.02;9.55;;;10.10;98.60;;;;;;4990242;28;20030;-93
2021/10/28 06:17:44;;;;;;;12.73;8.27;;;10.10;98.60;;;;;;5038513;28;20485;-87
2021/10/28 06:20:10;;;;;;;14.07;8.95;;;10.10;98.60;;;;;;5020687;28;20406;-87
2021/10/28 06:22:36;;;;;;;13.60;9.63;;;10.10;98.60;;;;;;5004590;28;20120;-89
2021/10/28 06:25:02;;;;;;;13.07;8.52;;;10.10;98.70;;;;;;5020689;28;20123;-87
2021/10/28 06:27:28;;;;;;;14.05;8.05;;;10.10;98.70;;;;;;5003470;28;20018;-87
2021/10/28 06:29:54;;;;;;;14.85;9.77;;;10.10;98.70;;;;;;5008201;28;20032;-87
2021/10/28 06:32:20;;;;;;;16.20;9.98;;;10.00;98.60;;;;;;4985884;28;20018;-87
2021/10/28 06:34:48;;;;;;;13.27;9.23;;;10.00;98.70;;;;;;5002212;28;20463;-88
2021/10/28 06:37:17;;;;;;;14.38;9.13;;;10.10;98.60;;;;;;5002638;28;20026;-87
2021/10/28 06:39:43;;;;;;;15.95;9.40;;;10.00;98.60;;;;;;5033978;28;20076;-87
2021/10/28 06:42:13;;;;;;;15.13;9.32;;;10.00;98.60;;;;;;4982517;28;20378;-87
2021/10/28 06:44:41;;;;;;;14.43;9.90;;;10.00;98.80;;;;;;4994990;28;20056;-87
2021/10/28 06:47:07;;;;;;;14.88;9.50;;;10.00;98.70;;;;;;5011842;28;20014;-92
2021/10/28 06:49:36;;;;;;;13.88;9.32;;;10.00;98.70;;;;;;5000050;28;20026;-92
2021/10/28 06:52:11;;;;;;;15.50;9.20;;;10.00;98.80;;;;;;5006234;28;20018;-87
2021/10/28 06:54:39;;;;;;;16.55;10.23;;;10.00;98.80;;;;;;5017644;28;20042;-87
2021/10/28 07:02:38;;;;;;;13.32;9.30;;;9.90;98.80;;;;;;5009306;28;20036;-87
2021/10/28 07:05:05;;;;;;;14.57;9.15;;;9.90;98.80;;;;;;5021383;28;20029;-87
2021/10/28 07:07:33;;;;;;;14.60;9.85;;;9.90;98.90;;;;;;5018124;28;20013;-87
2021/10/28 07:12:42;;;;;;;15.38;9.80;;;9.90;98.90;;;;;;4998905;28;20041;-87
2021/10/28 07:56:20;;;;;;;15.73;9.65;;;10.10;99.60;;;;;;5004496;28;20566;-92
2021/10/28 08:14:55;;;;;;;16.02;10.63;;;10.20;99.80;;;;;;5024482;28;20490;-92
2021/10/28 08:19:53;;;;;;;17.85;10.13;;;10.30;99.80;;;;;;5046687;28;20068;-93
2021/10/28 08:22:34;;;;;;;15.63;10.15;;;10.30;99.90;;;;;;5010839;28;20025;-92
2021/10/28 08:30:30;;;;;;;16.30;10.38;;;10.50;99.90;;;;;;5007863;28;20083;-93
2021/10/28 08:32:57;;;;;;;16.38;9.95;;;10.60;99.90;;;;;;4992881;28;20101;-93
2021/10/28 08:35:23;;;;;;;15.98;10.02;;;10.60;99.90;;;;;;5001391;28;20030;-93
2021/10/28 08:37:53;;;;;;;27.52;11.65;;;10.60;99.90;;;;;;5002495;28;20026;-94
2021/10/28 08:40:20;;;;;;;20.02;10.57;;;10.70;99.90;;;;;;5005265;28;20025;-94
2021/10/28 08:42:47;;;;;;;19.10;11.60;;;10.70;99.90;;;;;;5022974;28;20029;-93
2021/10/28 08:45:19;;;;;;;19.30;12.32;;;10.80;99.90;;;;;;4989317;28;20129;-93
2021/10/28 08:47:58;;;;;;;17.63;10.95;;;10.80;99.90;;;;;;5023187;28;20021;-93
2021/10/28 09:26:44;;;;;;;15.70;10.10;;;11.60;99.90;;;;;;5034102;28;19905;-88
2021/10/28 09:29:33;;;;;;;17.58;11.57;;;11.70;99.90;;;;;;5002180;28;20032;-88
2021/10/28 09:32:19;;;;;;;17.67;10.85;;;11.70;99.90;;;;;;5016522;28;20036;-88
2021/10/28 09:51:57;;;;;;;15.30;10.38;;;12.30;99.80;;;;;;5037733;28;20119;-86
2021/10/28 09:59:46;;;;;;;17.15;10.82;;;12.50;99.70;;;;;;5003267;28;20120;-88
2021/10/28 10:02:37;;;;;;;13.75;9.98;;;12.60;99.70;;;;;;5000305;28;20029;-87
2021/10/28 10:05:28;;;;;;;17.92;11.40;;;12.70;99.60;;;;;;4999918;28;20525;-88
2021/10/28 10:07:54;;;;;;;16.52;10.52;;;12.80;99.50;;;;;;4999809;28;20026;-87
2021/10/28 10:10:26;;;;;;;15.45;10.32;;;12.90;99.60;;;;;;4999981;28;20095;-88
2021/10/28 10:13:02;;;;;;;15.38;10.65;;;13.10;99.70;;;;;;5000124;28;20030;-87
2021/10/28 10:15:28;;;;;;;17.65;11.40;;;13.20;99.60;;;;;;5000055;28;20108;-86
2021/10/28 10:17:57;;;;;;;16.70;11.77;;;13.30;99.60;;;;;;4984773;28;20112;-86
2021/10/28 10:20:37;;;;;;;17.13;11.23;;;13.40;99.60;;;;;;5010360;28;20022;-86
2021/10/28 11:21:56;;;;;;;13.00;9.40;;;15.70;95.10;;;;;;5031671;28;20109;-80
2021/10/28 11:25:41;;;;;;;14.25;10.00;;;15.90;95.30;;;;;;5006551;28;20021;-81
2021/10/28 11:27:45;;;;;;;15.50;10.65;;;16.00;95.20;;;;;;5020854;28;20030;-81
2021/10/28 11:30:48;;;;;;;15.00;10.52;;;16.10;95.00;;;;;;5009252;28;20041;-88
2021/10/28 11:33:28;;;;;;;14.60;10.48;;;16.20;94.40;;;;;;5035339;28;20022;-88
2021/10/28 12:44:29;;;;;;;18.20;12.60;;;18.30;89.80;;;;;;5035685;28;20099;-89
2021/10/28 13:50:56;;;;;;;13.07;5.72;;;19.20;82.10;;;;;;5025799;28;20040;-91
2021/10/28 13:58:42;;;;;;;8.68;5.13;;;19.20;80.00;;;;;;5022155;28;20085;-91
2021/10/28 15:36:16;;;;;;;6.80;4.65;;;18.30;82.50;;;;;;4994782;28;20124;-91
2021/10/28 15:41:21;;;;;;;8.35;4.47;;;18.30;82.90;;;;;;5034944;28;20047;-90
2021/10/28 15:50:16;;;;;;;6.93;4.55;;;18.20;83.70;;;;;;5032600;28;20064;-91
2021/10/28 16:00:29;;;;;;;7.35;5.18;;;18.20;84.50;;;;;;5039631;28;20037;-91
2021/10/28 16:22:06;;;;;;;7.63;5.13;;;18.10;86.60;;;;;;5030325;28;20565;-91
2021/10/28 16:24:34;;;;;;;7.10;4.93;;;18.00;86.30;;;;;;5034259;28;20118;-90
2021/10/28 16:27:03;;;;;;;9.35;5.65;;;18.00;86.20;;;;;;5043257;28;20039;-89
2021/10/28 16:29:29;;;;;;;8.77;5.20;;;18.00;86.40;;;;;;5016838;28;20429;-91
2021/10/28 16:31:56;;;;;;;7.07;4.75;;;17.90;86.50;;;;;;5033021;28;20036;-90
2021/10/28 16:34:23;;;;;;;6.72;4.82;;;17.90;86.70;;;;;;5034511;28;20423;-90
2021/10/28 16:36:49;;;;;;;7.63;4.60;;;17.80;86.80;;;;;;5017202;28;20040;-91
2021/10/28 16:39:15;;;;;;;7.13;4.82;;;17.80;87.10;;;;;;5033480;28;20033;-90
2021/10/28 16:41:47;;;;;;;10.73;4.88;;;17.70;87.80;;;;;;5033238;28;20087;-90
2021/10/28 16:44:14;;;;;;;8.75;5.05;;;17.70;87.40;;;;;;5034057;28;20033;-91
2021/10/28 16:46:40;;;;;;;8.90;5.15;;;17.70;87.70;;;;;;5017174;28;20032;-91
2021/10/28 16:49:07;;;;;;;9.68;5.30;;;17.60;87.70;;;;;;5034065;28;20033;-89
2021/10/28 16:51:34;;;;;;;7.10;5.10;;;17.60;87.80;;;;;;5033011;28;20029;-89
2021/10/28 16:53:59;;;;;;;8.45;5.45;;;17.60;87.90;;;;;;5032659;28;20053;-92
2021/10/28 16:56:25;;;;;;;8.98;5.18;;;17.50;87.90;;;;;;5017484;28;20095;-89
2021/10/28 16:58:51;;;;;;;8.02;4.75;;;17.50;88.00;;;;;;5014691;28;20026;-90
2021/10/28 17:01:17;;;;;;;9.63;5.53;;;17.40;88.00;;;;;;5000842;28;20112;-90
2021/10/28 17:03:43;;;;;;;11.10;5.47;;;17.40;88.20;;;;;;5017112;28;20072;-92
2021/10/28 17:06:12;;;;;;;7.97;5.28;;;17.40;88.30;;;;;;5017132;28;20033;-89
2021/10/28 17:08:37;;;;;;;10.23;5.28;;;17.30;88.50;;;;;;5027149;28;20053;-92
2021/10/28 17:11:04;;;;;;;7.30;5.05;;;17.20;88.30;;;;;;5015717;28;20524;-90
2021/10/28 17:13:30;;;;;;;10.18;5.20;;;17.20;88.90;;;;;;5011144;28;20442;-90
2021/10/28 17:15:55;;;;;;;7.57;5.20;;;17.20;89.00;;;;;;4995780;28;20034;-89
2021/10/28 17:18:21;;;;;;;8.43;5.85;;;17.10;88.90;;;;;;5012472;28;20027;-91
2021/10/28 17:20:47;;;;;;;9.45;5.35;;;17.10;89.20;;;;;;5010011;28;20049;-90
2021/10/28 17:23:15;;;;;;;6.72;4.93;;;17.10;89.30;;;;;;5002892;28;20034;-91
2021/10/28 17:25:45;;;;;;;7.65;4.80;;;17.00;89.30;;;;;;4994351;28;20030;-91
2021/10/28 17:28:11;;;;;;;9.85;5.32;;;17.00;89.50;;;;;;4998229;28;20506;-91
2021/10/28 17:30:38;;;;;;;11.55;5.45;;;17.00;89.60;;;;;;4994600;28;20018;-91
2021/10/28 17:33:04;;;;;;;7.68;5.30;;;17.00;89.60;;;;;;5006442;28;20041;-91
2021/10/28 17:35:30;;;;;;;8.32;5.55;;;16.90;89.70;;;;;;5005795;28;20026;-89
2021/10/28 17:37:56;;;;;;;8.77;5.50;;;16.80;89.90;;;;;;5021887;28;20390;-90
2021/10/28 17:40:23;;;;;;;10.27;6.50;;;16.80;90.00;;;;;;4999250;28;20093;-92
2021/10/28 17:42:52;;;;;;;9.43;6.03;;;16.80;90.40;;;;;;4994476;28;20036;-91
2021/10/28 17:45:17;;;;;;;7.97;5.82;;;16.70;90.20;;;;;;4994999;28;20026;-91
2021/10/28 17:47:45;;;;;;;9.10;5.57;;;16.70;90.40;;;;;;5004054;28;20482;-91
2021/10/28 17:50:11;;;;;;;9.88;5.45;;;16.70;90.40;;;;;;5016540;28;20052;-91
2021/10/28 17:52:37;;;;;;;8.05;5.82;;;16.70;90.40;;;;;;4999194;28;20029;-91
2021/10/28 17:55:05;;;;;;;8.80;5.88;;;16.60;90.30;;;;;;4963742;28;20791;-88
2021/10/28 17:57:31;;;;;;;8.55;5.78;;;16.60;90.40;;;;;;5004644;28;20073;-91
2021/10/28 17:59:57;;;;;;;8.77;6.05;;;16.50;90.50;;;;;;4999478;28;20086;-92
2021/10/28 18:02:23;;;;;;;8.23;6.25;;;16.50;90.40;;;;;;4995759;28;20027;-90
2021/10/28 18:04:48;;;;;;;11.50;6.03;;;16.50;90.50;;;;;;4999563;28;20160;-91
2021/10/28 18:07:16;;;;;;;9.80;6.45;;;16.50;90.60;;;;;;4994414;28;20030;-91
2021/10/28 18:09:44;;;;;;;10.57;6.43;;;16.40;90.60;;;;;;4999313;28;20186;-89
2021/10/28 18:12:10;;;;;;;9.57;6.70;;;16.40;90.70;;;;;;5037254;28;20017;-91
2021/10/28 18:14:36;;;;;;;9.65;6.18;;;16.30;90.70;;;;;;5036246;28;20120;-91
2021/10/28 18:17:02;;;;;;;10.75;6.43;;;16.30;90.70;;;;;;5037482;28;20068;-91
2021/10/28 18:19:28;;;;;;;9.30;6.25;;;16.20;90.80;;;;;;5036301;28;20022;-91
2021/10/28 18:21:55;;;;;;;11.65;7.20;;;16.20;91.00;;;;;;5020861;28;20120;-91
2021/10/28 18:24:25;;;;;;;8.95;6.55;;;16.20;90.90;;;;;;5008933;28;20061;-91
2021/10/28 18:26:51;;;;;;;9.23;6.50;;;16.20;90.90;;;;;;5010949;28;20025;-92
2021/10/28 18:29:18;;;;;;;9.77;6.80;;;16.10;91.00;;;;;;5036318;28;20275;-92
2021/10/28 18:31:44;;;;;;;9.73;7.03;;;16.10;91.00;;;;;;5036386;28;20037;-89
2021/10/28 18:34:11;;;;;;;8.82;6.10;;;16.00;91.00;;;;;;5019961;28;20535;-91
2021/10/28 18:36:37;;;;;;;9.23;6.38;;;16.00;91.00;;;;;;5036726;28;20022;-91
2021/10/28 18:39:06;;;;;;;9.43;6.68;;;16.00;91.10;;;;;;5019651;28;20089;-90
2021/10/28 18:41:32;;;;;;;10.55;6.97;;;15.90;91.20;;;;;;5019213;28;20025;-91
2021/10/28 18:43:58;;;;;;;10.13;6.72;;;15.90;91.10;;;;;;5023117;28;20034;-91
2021/10/28 18:46:24;;;;;;;10.40;6.75;;;15.80;91.10;;;;;;5000688;28;20034;-89
2021/10/28 18:48:52;;;;;;;10.27;6.65;;;15.80;91.00;;;;;;5036035;28;20084;-93
2021/10/28 18:51:18;;;;;;;13.77;6.95;;;15.80;91.00;;;;;;5036205;28;20104;-93
2021/10/28 18:53:46;;;;;;;10.38;6.53;;;15.70;91.20;;;;;;5019741;28;20167;-93
2021/10/28 18:56:12;;;;;;;9.95;6.25;;;15.70;91.10;;;;;;5037146;28;20025;-93
2021/10/28 18:58:38;;;;;;;9.73;6.40;;;15.60;91.10;;;;;;5036373;28;20052;-92
2021/10/28 19:01:05;;;;;;;11.05;6.95;;;15.50;91.10;;;;;;5037072;28;20021;-92
2021/10/28 19:03:30;;;;;;;9.05;6.47;;;15.50;91.20;;;;;;5037609;28;20037;-88
2021/10/28 19:05:58;;;;;;;9.68;6.18;;;15.50;91.40;;;;;;5043763;28;20033;-92
2021/10/28 19:08:24;;;;;;;9.77;7.32;;;15.40;91.40;;;;;;5048893;28;20060;-89
2021/10/28 19:10:51;;;;;;;10.02;6.68;;;15.40;91.50;;;;;;5031663;28;20388;-91
2021/10/28 19:13:17;;;;;;;10.30;7.07;;;15.40;91.50;;;;;;5047663;28;20036;-92
2021/10/28 19:15:43;;;;;;;9.63;7.07;;;15.40;91.60;;;;;;5028712;28;20022;-90
2021/10/28 19:18:08;;;;;;;11.13;6.82;;;15.40;91.60;;;;;;5057620;28;20093;-88
2021/10/28 19:20:35;;;;;;;11.48;6.75;;;15.30;91.50;;;;;;5046329;28;20040;-87
2021/10/28 19:23:02;;;;;;;11.30;7.20;;;15.30;91.50;;;;;;5038844;28;20013;-88
2021/10/28 19:25:28;;;;;;;9.82;7.22;;;15.20;91.60;;;;;;5058030;28;20029;-89
2021/10/28 19:27:54;;;;;;;10.95;7.60;;;15.20;91.80;;;;;;5056648;28;20022;-89
2021/10/28 19:30:29;;;;;;;12.38;8.10;;;15.10;91.80;;;;;;5010354;28;20504;-89
2021/10/28 19:33:03;;;;;;;9.95;7.05;;;15.10;91.80;;;;;;5035162;28;20505;-90
2021/10/28 19:35:31;;;;;;;8.38;6.63;;;15.10;91.90;;;;;;5015371;28;20049;-89
2021/10/28 19:40:54;;;;;;;10.50;7.43;;;15.00;91.90;;;;;;5031842;28;20029;-88
2021/10/28 19:48:31;;;;;;;10.02;7.35;;;14.90;91.90;;;;;;5038931;28;20014;-88
2021/10/28 19:50:57;;;;;;;12.20;6.97;;;14.90;91.90;;;;;;5056921;28;20017;-87
2021/10/28 19:53:24;;;;;;;9.18;7.50;;;14.80;92.00;;;;;;5057338;28;20028;-89
2021/10/28 19:55:51;;;;;;;10.73;7.57;;;14.80;92.10;;;;;;5039622;28;20440;-90
2021/10/28 19:58:23;;;;;;;10.73;7.47;;;14.80;92.20;;;;;;5010687;28;20025;-91
2021/10/28 20:00:57;;;;;;;13.18;8.80;;;14.70;92.10;;;;;;5022210;28;20057;-94
2021/10/28 20:03:39;;;;;;;11.73;7.65;;;14.60;92.20;;;;;;5002449;28;20072;-92
2021/10/28 20:06:11;;;;;;;12.80;8.80;;;14.60;92.30;;;;;;5020473;28;20034;-91
2021/10/28 20:22:19;;;;;;;12.45;8.45;;;14.30;92.50;;;;;;5034691;28;20041;-89
2021/10/28 20:24:45;;;;;;;10.48;7.90;;;14.30;92.70;;;;;;5003675;28;20046;-89
2021/10/28 20:27:11;;;;;;;10.60;7.93;;;14.30;92.60;;;;;;5034020;28;20029;-89
2021/10/28 20:29:36;;;;;;;10.70;7.80;;;14.30;92.60;;;;;;4999664;28;20046;-90
2021/10/28 20:32:02;;;;;;;11.82;8.02;;;14.30;92.60;;;;;;5016858;28;20033;-90
2021/10/28 20:34:35;;;;;;;12.73;8.43;;;14.30;92.70;;;;;;5014044;28;20025;-91
2021/10/28 20:37:06;;;;;;;12.05;8.38;;;14.30;92.70;;;;;;5026812;28;20029;-90
2021/10/28 20:39:41;;;;;;;10.23;7.80;;;14.30;92.60;;;;;;5034314;28;20052;-90
2021/10/28 20:42:07;;;;;;;11.27;7.90;;;14.30;92.60;;;;;;5021137;28;20032;-91
2021/10/28 20:44:33;;;;;;;12.73;8.75;;;14.30;92.50;;;;;;5034300;28;20641;-90
2021/10/28 20:46:59;;;;;;;12.45;8.43;;;14.30;92.50;;;;;;5034479;28;20081;-90
2021/10/28 20:49:25;;;;;;;12.98;9.48;;;14.20;92.60;;;;;;5033669;28;20116;-90
2021/10/28 20:51:51;;;;;;;11.60;9.02;;;14.20;92.50;;;;;;5033936;28;20048;-91
2021/10/28 20:54:16;;;;;;;12.13;8.43;;;14.20;92.50;;;;;;5034216;28;20029;-90
2021/10/28 20:56:42;;;;;;;12.55;9.07;;;14.10;92.50;;;;;;5033510;28;20029;-90
2021/10/28 20:59:08;;;;;;;15.15;9.23;;;14.10;92.60;;;;;;5015585;28;20030;-91
2021/10/28 21:01:34;;;;;;;14.20;9.07;;;14.10;92.50;;;;;;5028702;28;20508;-90
2021/10/28 21:03:59;;;;;;;12.93;8.85;;;14.00;92.50;;;;;;5013643;28;20133;-91
2021/10/28 21:06:25;;;;;;;13.85;9.40;;;14.00;92.50;;;;;;5016456;28;20172;-89
2021/10/28 21:08:51;;;;;;;12.50;9.25;;;14.00;92.60;;;;;;5016355;28;20478;-90
2021/10/28 21:11:17;;;;;;;12.00;8.90;;;13.90;92.50;;;;;;5017704;28;20060;-91
2021/10/28 21:13:42;;;;;;;14.35;9.60;;;13.90;92.60;;;;;;5017847;28;20025;-90
2021/10/28 21:16:08;;;;;;;14.10;10.40;;;13.80;92.60;;;;;;4984956;28;20547;-93
2021/10/28 21:18:34;;;;;;;12.18;9.75;;;13.80;92.60;;;;;;5020793;28;20539;-89
2021/10/28 21:21:01;;;;;;;12.65;9.25;;;13.80;92.60;;;;;;5033167;28;20472;-89
2021/10/28 21:23:27;;;;;;;15.95;9.90;;;13.70;92.60;;;;;;5018398;28;20030;-92
2021/10/28 21:25:53;;;;;;;12.35;10.05;;;13.70;92.80;;;;;;5013997;28;20029;-91
2021/10/28 21:28:18;;;;;;;15.82;9.90;;;13.70;92.80;;;;;;5016983;28;20093;-90
2021/10/28 21:30:45;;;;;;;14.98;9.02;;;13.70;92.90;;;;;;5019260;28;20473;-90
2021/10/28 21:33:12;;;;;;;12.98;9.30;;;13.70;92.90;;;;;;5036426;28;20033;-89
2021/10/28 21:35:38;;;;;;;14.90;10.23;;;13.70;92.80;;;;;;5006464;28;20032;-90
2021/10/28 21:38:03;;;;;;;13.13;10.15;;;13.70;92.90;;;;;;5029213;28;20029;-91
2021/10/28 21:40:29;;;;;;;14.63;9.85;;;13.70;92.80;;;;;;4980719;28;20029;-90
2021/10/28 21:42:57;;;;;;;15.63;10.80;;;13.60;92.90;;;;;;5021076;28;20033;-89
2021/10/28 21:45:23;;;;;;;13.45;9.32;;;13.60;92.80;;;;;;5046899;28;20068;-90
2021/10/28 21:47:50;;;;;;;13.40;10.02;;;13.60;92.80;;;;;;5036502;28;20449;-90
2021/10/28 21:50:18;;;;;;;13.80;9.85;;;13.60;92.80;;;;;;5020860;28;20053;-90